Terminal Aerodrome Forecast
Issued by NWS

Home | Current Version | Previous Version | Text Only | Print | Product List | Glossary On
Versions: 1 2 3 4 5 6 7 8 9 10 11 12 13 14 15
428
FTUS42 KMLB 231138
TAFTIX
TAF
KTIX 231138Z 2312/2412 12003KT P6SM FEW030 SCT100
     FM231600 13007KT P6SM VCSH SCT025 SCT100 BKN250
      TEMPO 2317/2319 3SM SHRA BKN025
     FM231900 11009KT P6SM SCT025 BKN120
     FM240000 13004KT P6SM SCT025 BKN100=

USA.gov is the U.S. government's official web portal to all federal, state and local government web resources and services.